Time;durP1;ratioP1;P1;durP2;ratioP2;P2;SDS_P1;SDS_P2;PMS_P1;PMS_P2;Temp;Humidity;BMP_temperature;BMP_pressure;BME280_temperature;BME280_humidity;BME280_pressure;Samples;Min_cycle;Max_cycle;Signal;HPM_P1;HPM_P2
2024/02/15 00:03:36;;;;;;;15.82;3.33;;;12.50;99.90;;;;;;10564246;27;20205;-63
2024/02/15 00:08:38;;;;;;;15.93;3.70;;;13.30;99.90;;;;;;10558100;27;20616;-63
2024/02/15 00:13:43;;;;;;;16.98;3.55;;;12.80;99.90;;;;;;10561780;27;20078;-63
2024/02/15 00:18:45;;;;;;;10.32;3.42;;;13.10;99.90;;;;;;10549774;27;20784;-62
2024/02/15 00:23:48;;;;;;;7.65;3.40;;;13.10;99.90;;;;;;10550275;28;20055;-63
2024/02/15 00:28:51;;;;;;;7.50;3.10;;;13.80;99.90;;;;;;10555272;27;20048;-64
2024/02/15 00:33:53;;;;;;;12.07;2.92;;;13.90;99.90;;;;;;10561792;27;20473;-62
2024/02/15 00:38:56;;;;;;;15.93;4.43;;;14.40;99.90;;;;;;10554144;27;20051;-63
2024/02/15 00:43:59;;;;;;;13.85;3.90;;;13.80;99.90;;;;;;10558046;27;20159;-63
2024/02/15 00:49:01;;;;;;;11.30;4.28;;;13.10;99.90;;;;;;10561193;27;20090;-63
2024/02/15 00:54:04;;;;;;;8.32;4.10;;;13.10;99.90;;;;;;10562049;27;20051;-63
2024/02/15 00:59:08;;;;;;;15.13;4.75;;;13.60;99.90;;;;;;10558011;27;20048;-63
2024/02/15 01:04:10;;;;;;;13.23;5.10;;;14.10;99.90;;;;;;10559659;27;20055;-63
2024/02/15 01:09:13;;;;;;;12.87;5.17;;;13.90;99.90;;;;;;10558640;27;20090;-62
2024/02/15 01:14:16;;;;;;;17.20;6.28;;;14.10;99.90;;;;;;10559871;27;20051;-63
2024/02/15 01:19:18;;;;;;;13.02;6.13;;;13.50;99.90;;;;;;10557887;27;20658;-63
2024/02/15 01:24:21;;;;;;;13.43;5.13;;;13.60;99.90;;;;;;10560473;27;20096;-63
2024/02/15 01:29:25;;;;;;;18.55;6.70;;;13.70;99.90;;;;;;10560066;27;20051;-62
2024/02/15 01:34:27;;;;;;;17.15;7.20;;;12.90;99.90;;;;;;10556462;27;20897;-63
2024/02/15 01:39:29;;;;;;;16.60;5.83;;;12.90;99.90;;;;;;10548538;27;20047;-63
2024/02/15 01:44:33;;;;;;;16.90;6.60;;;12.90;99.90;;;;;;10568463;27;20078;-63
2024/02/15 01:49:35;;;;;;;18.77;5.55;;;12.90;99.90;;;;;;10566580;27;20044;-62
2024/02/15 01:54:38;;;;;;;14.33;5.27;;;13.20;99.90;;;;;;10574687;27;20056;-62
2024/02/15 01:59:42;;;;;;;20.95;6.85;;;12.90;99.90;;;;;;10573038;27;20049;-62
2024/02/15 02:04:44;;;;;;;17.67;5.80;;;12.70;99.90;;;;;;10571018;27;20075;-62
2024/02/15 02:09:48;;;;;;;13.52;5.15;;;12.70;99.90;;;;;;10569716;27;20046;-62
2024/02/15 02:14:52;;;;;;;11.52;4.82;;;12.80;99.90;;;;;;10572408;27;20122;-63
2024/02/15 02:19:54;;;;;;;8.02;3.88;;;12.70;99.90;;;;;;10560800;27;20097;-63
2024/02/15 02:25:04;;;;;;;8.67;3.47;;;12.90;99.90;;;;;;10565513;27;20832;-62
2024/02/15 02:30:14;;;;;;;13.40;4.63;;;12.90;99.90;;;;;;10567880;27;20047;-62
2024/02/15 02:35:16;;;;;;;19.35;5.72;;;12.50;99.90;;;;;;10564740;27;20890;-63
2024/02/15 02:40:21;;;;;;;18.80;4.93;;;12.40;99.90;;;;;;10565523;27;20732;-63
2024/02/15 02:45:23;;;;;;;16.60;4.72;;;12.50;99.90;;;;;;10563503;27;20634;-63
2024/02/15 02:50:26;;;;;;;15.57;4.43;;;12.70;99.90;;;;;;10565356;27;20662;-63
2024/02/15 02:55:30;;;;;;;;;;;12.50;99.90;;;;;;10561108;27;20055;-62
2024/02/15 03:00:32;;;;;;;15.98;4.60;;;12.50;99.90;;;;;;10562690;27;19919;-62
2024/02/15 03:05:34;;;;;;;22.35;5.32;;;12.60;99.90;;;;;;10564847;27;20051;-63
2024/02/15 03:10:38;;;;;;;18.57;5.70;;;12.50;99.90;;;;;;10560348;27;20051;-63
2024/02/15 03:15:41;;;;;;;22.20;6.05;;;12.50;99.90;;;;;;10562156;27;20065;-62
2024/02/15 03:20:43;;;;;;;17.67;6.30;;;12.60;99.90;;;;;;10563750;27;20055;-62
2024/02/15 03:25:48;;;;;;;10.23;5.93;;;12.60;99.90;;;;;;10563893;27;20856;-61
2024/02/15 03:30:52;;;;;;;20.42;7.13;;;12.60;99.90;;;;;;10565806;27;20052;-62
2024/02/15 03:36:00;;;;;;;11.60;5.55;;;12.50;99.90;;;;;;10558173;27;20070;-64
2024/02/15 03:41:05;;;;;;;9.77;4.82;;;13.20;99.90;;;;;;10559308;27;20055;-62
2024/02/15 03:46:08;;;;;;;10.68;4.43;;;13.70;99.90;;;;;;10554876;27;20039;-61
2024/02/15 03:51:10;;;;;;;9.95;4.95;;;13.80;99.90;;;;;;10556048;27;20081;-61
2024/02/15 03:56:14;;;;;;;7.27;4.33;;;14.50;99.90;;;;;;10566717;27;20046;-61
2024/02/15 04:15:33;;;;;;;0.73;0.73;;;14.50;99.90;;;;;;10486047;28;20790;-62
2024/02/15 04:20:35;;;;;;;0.65;0.65;;;14.40;99.90;;;;;;10498979;28;20036;-62
2024/02/15 04:25:37;;;;;;;0.10;0.10;;;14.30;99.90;;;;;;10511196;28;20063;-62
2024/02/15 04:30:41;;;;;;;0.03;0.03;;;14.00;99.90;;;;;;10513326;28;20530;-61
2024/02/15 04:35:43;;;;;;;0.10;0.10;;;14.10;99.90;;;;;;10499630;28;20099;-61
2024/02/15 04:40:45;;;;;;;0.10;0.10;;;14.40;99.90;;;;;;10503570;28;20070;-62
2024/02/15 04:45:48;;;;;;;0.03;0.03;;;14.90;99.90;;;;;;10505915;28;20063;-62
2024/02/15 04:50:51;;;;;;;0.10;0.10;;;15.80;99.90;;;;;;10509144;28;20741;-62
2024/02/15 04:55:55;;;;;;;;;;;15.70;99.90;;;;;;10501660;28;20147;-62
2024/02/15 05:00:59;;;;;;;0.05;0.05;;;15.00;99.90;;;;;;10511884;28;21921;-62
2024/02/15 05:06:01;;;;;;;0.55;0.50;;;14.50;99.90;;;;;;10512289;28;20630;-62
2024/02/15 05:11:12;;;;;;;0.43;0.43;;;14.60;99.90;;;;;;10510607;28;20047;-62
2024/02/15 05:16:16;;;;;;;0.10;0.10;;;14.80;99.90;;;;;;10509136;28;20044;-62
2024/02/15 05:21:19;;;;;;;0.28;0.28;;;14.80;99.90;;;;;;10501151;28;20086;-61
2024/02/15 05:26:23;;;;;;;;;;;15.00;99.90;;;;;;10478259;28;20054;-63
2024/02/15 05:31:26;;;;;;;2.85;1.75;;;14.70;99.90;;;;;;10473971;28;19945;-63
2024/02/15 05:36:30;;;;;;;0.60;0.60;;;14.60;99.90;;;;;;10466531;28;20055;-63
2024/02/15 05:41:34;;;;;;;0.10;0.10;;;14.80;99.90;;;;;;10475326;28;20222;-62
2024/02/15 05:46:39;;;;;;;0.52;0.50;;;15.20;99.90;;;;;;10475925;28;20570;-63
2024/02/15 05:51:41;;;;;;;0.10;0.10;;;14.80;99.90;;;;;;10471095;28;20586;-62
2024/02/15 05:56:43;;;;;;;0.10;0.10;;;14.90;99.90;;;;;;10469192;28;20056;-62
2024/02/15 06:01:48;;;;;;;0.17;0.17;;;15.20;99.90;;;;;;10477856;28;20053;-62
2024/02/15 06:06:50;;;;;;;0.10;0.10;;;15.10;99.90;;;;;;10467076;28;20059;-64
2024/02/15 06:11:55;;;;;;;0.07;0.07;;;15.00;99.90;;;;;;10458409;28;20048;-62
2024/02/15 06:16:58;;;;;;;0.00;0.00;;;14.80;99.90;;;;;;10474135;28;20684;-61
2024/02/15 06:22:01;;;;;;;0.10;0.10;;;15.00;99.90;;;;;;10478892;28;20059;-61
2024/02/15 06:27:03;;;;;;;0.10;0.10;;;15.00;99.90;;;;;;10470224;28;21406;-62
2024/02/15 06:42:58;;;;;;;0.30;0.30;;;12.80;99.90;;;;;;10474017;28;20032;-62
2024/02/15 06:48:01;;;;;;;0.55;0.55;;;13.00;99.90;;;;;;10470086;28;20761;-62
2024/02/15 06:53:03;;;;;;;0.10;0.10;;;12.90;99.90;;;;;;10476247;28;20056;-62
2024/02/15 06:58:05;;;;;;;0.10;0.10;;;13.10;99.90;;;;;;10465268;28;20123;-62
2024/02/15 07:03:10;;;;;;;0.07;0.07;;;13.20;99.90;;;;;;10466601;28;20040;-61
2024/02/15 07:08:13;;;;;;;0.10;0.10;;;13.50;99.90;;;;;;10467624;28;20052;-61
2024/02/15 07:13:15;;;;;;;0.10;0.10;;;13.20;99.90;;;;;;10471206;28;20048;-61
2024/02/15 07:18:20;;;;;;;0.10;0.10;;;13.70;99.90;;;;;;10476191;28;20794;-61
2024/02/15 07:23:22;;;;;;;0.10;0.10;;;14.60;99.90;;;;;;10470249;28;20063;-65
2024/02/15 07:28:26;;;;;;;0.20;0.20;;;15.10;99.90;;;;;;10462598;28;20048;-62
2024/02/15 07:33:29;;;;;;;0.17;0.17;;;14.50;99.90;;;;;;10467138;28;20051;-61
2024/02/15 07:38:34;;;;;;;1.65;0.43;;;14.70;99.90;;;;;;10469801;28;20055;-61
2024/02/15 07:43:36;;;;;;;0.10;0.10;;;14.80;99.90;;;;;;10457522;28;20868;-64
2024/02/15 07:48:39;;;;;;;0.10;0.10;;;15.10;99.90;;;;;;10461205;28;20151;-62
2024/02/15 07:53:42;;;;;;;1.95;1.38;;;15.30;99.90;;;;;;10461892;28;20057;-63
2024/02/15 07:58:46;;;;;;;0.10;0.10;;;15.00;99.90;;;;;;10466255;28;20208;-61
2024/02/15 08:03:50;;;;;;;1.00;0.93;;;14.40;99.90;;;;;;10462062;28;20055;-62
2024/02/15 08:08:52;;;;;;;0.30;0.30;;;15.10;99.90;;;;;;10453268;28;20087;-62
2024/02/15 08:13:59;;;;;;;3.53;1.60;;;15.40;99.90;;;;;;10464267;28;20135;-62
2024/02/15 08:19:05;;;;;;;0.10;0.10;;;14.50;99.90;;;;;;10453964;28;20079;-62
2024/02/15 08:24:09;;;;;;;0.20;0.20;;;14.90;99.90;;;;;;10458166;28;20434;-61
2024/02/15 08:29:13;;;;;;;0.10;0.10;;;15.60;99.90;;;;;;10453987;28;20053;-63
2024/02/15 08:34:18;;;;;;;0.40;0.40;;;14.90;99.90;;;;;;10455272;28;20056;-62
2024/02/15 08:39:21;;;;;;;9.43;0.90;;;15.00;99.90;;;;;;10451742;28;20059;-63
2024/02/15 08:44:24;;;;;;;3.38;1.77;;;14.20;99.90;;;;;;10453119;28;20052;-62
2024/02/15 08:49:30;;;;;;;0.28;0.28;;;14.00;99.90;;;;;;10454312;28;20053;-62
2024/02/15 08:54:32;;;;;;;0.10;0.10;;;13.30;99.90;;;;;;10462541;28;20048;-63
2024/02/15 08:59:36;;;;;;;1.77;0.93;;;14.30;99.90;;;;;;10451236;28;20049;-62
2024/02/15 09:04:40;;;;;;;0.10;0.10;;;14.20;99.90;;;;;;10467312;28;20049;-65
2024/02/15 09:09:42;;;;;;;1.40;1.13;;;14.00;99.90;;;;;;10455778;28;20048;-62
2024/02/15 09:14:44;;;;;;;0.20;0.20;;;13.60;99.90;;;;;;10467116;28;20067;-62
2024/02/15 09:19:50;;;;;;;0.83;0.83;;;13.40;99.90;;;;;;10466244;28;20055;-63
2024/02/15 09:24:52;;;;;;;0.13;0.13;;;13.80;99.90;;;;;;10460822;28;20574;-62
2024/02/15 09:29:55;;;;;;;0.40;0.40;;;14.20;99.90;;;;;;10461715;28;20048;-71
2024/02/15 09:34:59;;;;;;;0.10;0.10;;;14.00;99.90;;;;;;10472800;28;20048;-62
2024/02/15 09:40:06;;;;;;;0.10;0.10;;;13.90;99.90;;;;;;10475496;28;20057;-63
2024/02/15 09:45:10;;;;;;;0.32;0.32;;;14.50;99.90;;;;;;10457820;28;20040;-63
2024/02/15 09:50:15;;;;;;;0.10;0.10;;;14.50;99.90;;;;;;10469084;28;20048;-62
2024/02/15 09:55:18;;;;;;;0.20;0.20;;;14.00;99.90;;;;;;10463472;28;20067;-61
2024/02/15 10:00:20;;;;;;;0.00;0.00;;;14.50;99.90;;;;;;10459182;28;20515;-62
2024/02/15 10:05:24;;;;;;;0.15;0.15;;;14.90;99.90;;;;;;10452848;28;20059;-63
2024/02/15 10:10:26;;;;;;;0.10;0.10;;;15.00;99.90;;;;;;10464505;28;20150;-63
2024/02/15 10:15:31;;;;;;;4.97;2.30;;;15.60;99.90;;;;;;10462002;28;20051;-62
2024/02/15 10:20:37;;;;;;;0.10;0.10;;;16.00;99.90;;;;;;10459794;28;20083;-66
2024/02/15 10:25:39;;;;;;;0.73;0.40;;;16.50;99.90;;;;;;10469803;28;20052;-62
2024/02/15 10:30:43;;;;;;;;;;;16.50;99.90;;;;;;10468274;28;20111;-63
2024/02/15 10:35:46;;;;;;;;;;;16.70;99.90;;;;;;10467430;28;19923;-63
2024/02/15 10:40:49;;;;;;;;;;;16.20;99.90;;;;;;10470715;28;19931;-62
2024/02/15 10:45:52;;;;;;;;;;;16.90;99.90;;;;;;10472030;28;19936;-60
2024/02/15 10:51:00;;;;;;;0.00;0.00;;;16.80;99.90;;;;;;10468750;28;19978;-62
2024/02/15 10:56:12;;;;;;;0.10;0.10;;;16.90;99.90;;;;;;10466169;28;20115;-60
2024/02/15 11:01:18;;;;;;;0.20;0.20;;;16.60;99.90;;;;;;10460333;28;20126;-65
2024/02/15 11:06:25;;;;;;;0.30;0.30;;;16.60;99.90;;;;;;10462175;28;20181;-64
2024/02/15 11:11:28;;;;;;;0.75;0.75;;;16.50;99.90;;;;;;10466078;28;20101;-64
2024/02/15 11:16:43;;;;;;;0.60;0.60;;;17.20;99.90;;;;;;10461109;28;20044;-65
2024/02/15 11:21:57;;;;;;;0.32;0.32;;;17.20;99.90;;;;;;10465778;28;20610;-65
2024/02/15 11:27:02;;;;;;;0.20;0.20;;;17.30;99.90;;;;;;10465645;28;21434;-63
2024/02/15 11:32:05;;;;;;;0.68;0.45;;;17.50;99.90;;;;;;10453105;28;20120;-66
2024/02/15 11:37:09;;;;;;;2.45;1.85;;;17.50;99.90;;;;;;10459968;28;20153;-62
2024/02/15 11:42:28;;;;;;;2.65;1.05;;;17.50;99.90;;;;;;10460074;28;20059;-63
2024/02/15 11:47:32;;;;;;;1.30;1.20;;;17.80;99.90;;;;;;10454587;28;20182;-63
2024/02/15 11:52:36;;;;;;;0.75;0.75;;;17.80;99.90;;;;;;10457004;28;20044;-63
2024/02/15 11:57:47;;;;;;;0.10;0.10;;;17.90;99.90;;;;;;10461052;28;20063;-62
2024/02/15 12:18:54;;;;;;;0.25;0.25;;;18.30;99.90;;;;;;10456479;28;20962;-64
2024/02/15 12:23:57;;;;;;;0.77;0.77;;;18.50;99.90;;;;;;10458804;28;20534;-66
2024/02/15 12:29:01;;;;;;;0.90;0.90;;;18.60;99.90;;;;;;10459716;28;20065;-64
2024/02/15 12:34:06;;;;;;;0.10;0.10;;;18.60;99.90;;;;;;10469042;28;20673;-64
2024/02/15 12:39:14;;;;;;;0.30;0.30;;;18.90;99.90;;;;;;10468764;28;20864;-63
2024/02/15 12:44:18;;;;;;;0.15;0.15;;;18.90;99.90;;;;;;10476894;28;20461;-63
2024/02/15 12:49:30;;;;;;;0.15;0.15;;;19.00;99.90;;;;;;10471416;28;20060;-64
2024/02/15 12:54:33;;;;;;;0.00;0.00;;;19.10;99.90;;;;;;10474393;28;20412;-64
2024/02/15 12:59:36;;;;;;;0.40;0.40;;;19.20;99.90;;;;;;10478339;28;20045;-67
2024/02/15 13:04:39;;;;;;;0.30;0.30;;;19.40;99.90;;;;;;10472118;28;20052;-65
2024/02/15 13:09:43;;;;;;;1.10;1.00;;;19.30;99.90;;;;;;10471108;28;20859;-63
2024/02/15 13:14:49;;;;;;;0.60;0.43;;;19.30;99.90;;;;;;10480720;28;20224;-64
2024/02/15 13:19:52;;;;;;;0.00;0.00;;;19.50;99.90;;;;;;10473683;28;20067;-64
2024/02/15 13:24:55;;;;;;;0.25;0.25;;;19.60;99.90;;;;;;10465531;28;20060;-63
2024/02/15 13:29:58;;;;;;;0.10;0.10;;;19.70;99.90;;;;;;10463331;28;20917;-64
2024/02/15 13:35:07;;;;;;;;;;;19.80;99.90;;;;;;10453776;28;20055;-63
2024/02/15 13:40:15;;;;;;;0.08;0.08;;;19.90;99.90;;;;;;10456115;28;19935;-64
2024/02/15 13:45:18;;;;;;;0.10;0.10;;;20.00;99.90;;;;;;10455252;28;20453;-65
2024/02/15 13:50:20;;;;;;;;;;;20.10;99.90;;;;;;10463628;28;20048;-64
2024/02/15 13:55:26;;;;;;;0.00;0.00;;;20.20;99.90;;;;;;10453210;27;19928;-64
2024/02/15 14:00:33;;;;;;;0.00;0.00;;;20.30;99.90;;;;;;10462635;28;20063;-64
2024/02/15 14:05:35;;;;;;;0.00;0.00;;;20.40;99.90;;;;;;10470329;28;20522;-65
2024/02/15 14:10:39;;;;;;;0.00;0.00;;;20.40;99.90;;;;;;10462191;28;20059;-63
2024/02/15 14:15:43;;;;;;;0.08;0.08;;;20.50;99.90;;;;;;10459513;28;20044;-64
2024/02/15 14:20:46;;;;;;;0.17;0.17;;;20.60;99.90;;;;;;10464534;28;20755;-64
2024/02/15 14:25:51;;;;;;;0.00;0.00;;;20.70;99.90;;;;;;10460125;28;20040;-63
2024/02/15 14:36:14;;;;;;;0.30;0.30;;;20.50;99.90;;;;;;10457695;28;20040;-64
2024/02/15 14:41:17;;;;;;;1.48;1.17;;;20.60;99.90;;;;;;10459185;28;20078;-63
2024/02/15 14:46:20;;;;;;;0.00;0.00;;;20.60;99.90;;;;;;10456533;28;20056;-64
2024/02/15 14:51:24;;;;;;;0.15;0.10;;;20.50;99.90;;;;;;10464732;28;20056;-64
2024/02/15 14:56:27;;;;;;;0.00;0.00;;;20.60;99.90;;;;;;10455582;28;20047;-64
2024/02/15 15:01:30;;;;;;;5.82;2.20;;;20.60;99.90;;;;;;10455993;28;20060;-64
2024/02/15 15:17:13;;;;;;;8.77;2.25;;;20.70;99.90;;;;;;10454121;28;20627;-64
2024/02/15 15:22:19;;;;;;;7.93;1.95;;;20.70;99.90;;;;;;10455705;28;20225;-63
2024/02/15 15:27:23;;;;;;;9.50;2.10;;;20.80;99.90;;;;;;10448416;28;20579;-63
2024/02/15 15:32:25;;;;;;;7.55;2.20;;;20.80;99.90;;;;;;10463357;28;20531;-64
2024/02/15 15:37:28;;;;;;;13.25;2.85;;;20.80;99.90;;;;;;10453154;28;20044;-63
2024/02/15 15:42:32;;;;;;;8.82;2.50;;;20.90;99.90;;;;;;10464754;28;20145;-63
2024/02/15 15:47:34;;;;;;;5.07;2.00;;;20.90;99.90;;;;;;10458760;28;20325;-63
2024/02/15 15:52:37;;;;;;;7.60;3.08;;;20.90;99.90;;;;;;10451868;28;20052;-64
2024/02/15 15:57:41;;;;;;;6.80;2.13;;;20.80;99.90;;;;;;10453137;28;20041;-63
2024/02/15 16:02:45;;;;;;;5.15;1.88;;;20.90;99.90;;;;;;10451106;28;20083;-62
2024/02/15 16:07:47;;;;;;;8.07;2.28;;;20.80;99.90;;;;;;10456980;28;20048;-63
2024/02/15 16:12:52;;;;;;;;;;;20.80;99.90;;;;;;10452748;28;20044;-64
2024/02/15 16:17:54;;;;;;;3.53;1.77;;;20.80;99.90;;;;;;10460566;28;19928;-64
2024/02/15 16:22:56;;;;;;;6.78;1.75;;;20.80;99.90;;;;;;10467460;28;20073;-64
2024/02/15 16:28:00;;;;;;;7.00;2.00;;;20.70;99.90;;;;;;10461737;28;20048;-63
2024/02/15 16:33:03;;;;;;;4.07;1.55;;;20.80;99.90;;;;;;10455296;28;20059;-64
2024/02/15 16:38:06;;;;;;;5.50;1.40;;;20.80;99.90;;;;;;10456382;28;20052;-65
2024/02/15 16:43:09;;;;;;;4.95;1.58;;;20.70;99.90;;;;;;10459023;28;20526;-64
2024/02/15 16:48:11;;;;;;;6.80;1.80;;;20.60;99.90;;;;;;10461127;28;20057;-64
2024/02/15 16:53:14;;;;;;;7.95;1.58;;;20.60;99.90;;;;;;10461078;28;20051;-64
2024/02/15 16:58:20;;;;;;;3.42;1.55;;;20.50;99.90;;;;;;10456281;28;20930;-65
2024/02/15 17:03:22;;;;;;;5.45;1.45;;;20.30;99.90;;;;;;10459983;28;20047;-65
2024/02/15 17:08:24;;;;;;;2.72;1.27;;;20.50;99.90;;;;;;10468568;28;20068;-65
2024/02/15 17:13:27;;;;;;;5.80;1.38;;;20.30;99.90;;;;;;10460878;28;20052;-64
2024/02/15 17:18:29;;;;;;;3.00;1.50;;;20.30;99.90;;;;;;10460203;28;20048;-64
2024/02/15 17:23:31;;;;;;;7.55;1.60;;;19.50;99.90;;;;;;10473868;28;20140;-64
2024/02/15 17:28:35;;;;;;;5.53;2.10;;;18.60;99.90;;;;;;10472395;28;20059;-64
2024/02/15 17:33:39;;;;;;;7.30;2.28;;;18.50;99.90;;;;;;10469189;28;20155;-64
2024/02/15 17:38:42;;;;;;;13.02;2.53;;;18.30;99.90;;;;;;10471693;28;20772;-64
2024/02/15 17:43:47;;;;;;;2.78;1.55;;;18.50;99.90;;;;;;10459274;28;20055;-64
2024/02/15 17:48:49;;;;;;;4.47;1.58;;;18.60;99.90;;;;;;10467561;28;20573;-64
2024/02/15 17:53:53;;;;;;;7.05;1.35;;;19.40;99.90;;;;;;10466350;28;20106;-64
2024/02/15 17:58:56;;;;;;;6.13;1.20;;;19.60;99.90;;;;;;10471254;28;20055;-64
2024/02/15 18:03:59;;;;;;;6.07;1.30;;;19.90;99.90;;;;;;10461154;28;20159;-64
2024/02/15 18:09:02;;;;;;;;;;;19.80;99.90;;;;;;10462492;28;20056;-64
2024/02/15 18:14:06;;;;;;;;;;;19.70;99.90;;;;;;10470865;28;19955;-65
2024/02/15 18:19:09;;;;;;;3.47;1.48;;;19.70;99.90;;;;;;10463595;28;21133;-65
2024/02/15 18:24:11;;;;;;;3.05;1.60;;;19.30;99.90;;;;;;10467138;28;20125;-66
2024/02/15 18:29:14;;;;;;;2.72;1.63;;;18.90;99.90;;;;;;10466657;28;20597;-62
2024/02/15 18:34:18;;;;;;;5.47;1.90;;;18.70;99.90;;;;;;10473348;28;20048;-64
2024/02/15 18:39:20;;;;;;;4.28;1.35;;;18.40;99.90;;;;;;10474335;28;20044;-64
2024/02/15 18:44:25;;;;;;;5.55;2.28;;;18.70;99.90;;;;;;10467614;28;20073;-64
2024/02/15 18:49:27;;;;;;;8.00;2.78;;;18.40;99.90;;;;;;10467265;28;20061;-62
2024/02/15 18:54:30;;;;;;;11.18;4.35;;;18.20;99.90;;;;;;10469729;28;20048;-65
2024/02/15 18:59:35;;;;;;;;;;;18.30;99.90;;;;;;10479694;28;20610;-65
2024/02/15 19:04:38;;;;;;;8.98;3.50;;;18.50;99.90;;;;;;10473018;28;20157;-64
2024/02/15 19:09:41;;;;;;;8.73;3.85;;;18.80;99.90;;;;;;10466861;28;20056;-64
2024/02/15 19:14:44;;;;;;;8.10;3.42;;;18.40;99.90;;;;;;10463508;28;20698;-63
2024/02/15 19:19:46;;;;;;;8.13;3.63;;;18.00;99.90;;;;;;10464949;28;21283;-64
2024/02/15 19:24:51;;;;;;;11.63;4.65;;;18.20;99.90;;;;;;10468557;28;20059;-64
2024/02/15 19:29:54;;;;;;;4.70;3.78;;;17.70;99.90;;;;;;10461176;28;20061;-64
2024/02/15 19:34:57;;;;;;;9.65;2.67;;;17.50;99.90;;;;;;10475905;28;20052;-64
2024/02/15 19:40:03;;;;;;;4.85;2.63;;;18.10;99.90;;;;;;10467526;28;20060;-65
2024/02/15 19:45:07;;;;;;;3.10;1.67;;;19.10;99.90;;;;;;10464403;28;20051;-64
2024/02/15 19:50:13;;;;;;;7.45;2.05;;;19.20;99.90;;;;;;10475929;28;20048;-64
2024/02/15 19:55:16;;;;;;;5.28;2.20;;;19.40;99.90;;;;;;10472400;28;20044;-63
2024/02/15 20:00:20;;;;;;;6.90;2.33;;;19.50;99.90;;;;;;10462905;28;20103;-63
2024/02/15 20:05:23;;;;;;;4.97;2.03;;;19.60;99.90;;;;;;10467730;28;20051;-64
2024/02/15 20:10:25;;;;;;;4.00;1.50;;;19.50;99.90;;;;;;10455933;28;20052;-64
2024/02/15 20:15:28;;;;;;;6.35;1.65;;;19.50;99.90;;;;;;10463266;28;20051;-63
2024/02/15 20:20:32;;;;;;;3.97;1.90;;;19.60;99.90;;;;;;10466214;28;20223;-63
2024/02/15 20:25:34;;;;;;;9.27;2.95;;;19.60;99.90;;;;;;10462653;28;20044;-62
2024/02/15 20:30:39;;;;;;;5.47;2.08;;;19.60;99.90;;;;;;10461211;28;20142;-63
2024/02/15 20:35:41;;;;;;;9.07;3.00;;;19.60;99.90;;;;;;10462333;28;20047;-62
2024/02/15 20:40:44;;;;;;;7.82;1.98;;;19.60;99.90;;;;;;10457137;28;20060;-62
2024/02/15 20:45:47;;;;;;;5.05;2.28;;;19.60;99.90;;;;;;10459136;28;20164;-63
2024/02/15 20:50:49;;;;;;;3.58;1.95;;;19.50;99.90;;;;;;10457512;28;20056;-62
2024/02/15 20:55:51;;;;;;;5.85;2.30;;;19.60;99.90;;;;;;10465533;28;20058;-62
2024/02/15 21:00:55;;;;;;;4.18;2.13;;;19.80;99.90;;;;;;10464785;28;20090;-62
2024/02/15 21:05:58;;;;;;;9.15;2.38;;;19.70;99.90;;;;;;10467459;28;20075;-63
2024/02/15 21:11:01;;;;;;;6.00;1.95;;;19.50;99.90;;;;;;10467042;28;20052;-63
2024/02/15 21:16:07;;;;;;;3.67;1.90;;;19.60;99.90;;;;;;10462355;28;20064;-63
2024/02/15 21:21:10;;;;;;;4.38;2.00;;;19.50;99.90;;;;;;10465852;28;20065;-62
2024/02/15 21:26:12;;;;;;;7.72;2.30;;;19.50;99.90;;;;;;10462555;28;20562;-63
2024/02/15 21:31:15;;;;;;;;;;;19.50;99.90;;;;;;10465373;28;20084;-63
2024/02/15 21:36:18;;;;;;;3.50;1.90;;;19.40;99.90;;;;;;10465206;28;20026;-63
2024/02/15 21:41:21;;;;;;;3.95;1.70;;;19.50;99.90;;;;;;10460457;28;20732;-62
2024/02/15 21:46:25;;;;;;;3.92;2.35;;;19.50;99.90;;;;;;10468811;28;20405;-64
2024/02/15 21:51:27;;;;;;;2.92;1.85;;;19.30;99.90;;;;;;10473148;28;20048;-62
2024/02/15 21:56:29;;;;;;;3.60;2.05;;;19.60;99.90;;;;;;10478066;28;20060;-62
2024/02/15 22:01:38;;;;;;;3.47;1.55;;;19.50;99.90;;;;;;10481017;28;20039;-62
2024/02/15 22:06:46;;;;;;;5.07;2.00;;;19.20;99.90;;;;;;10473001;28;20841;-62
2024/02/15 22:11:48;;;;;;;4.75;1.88;;;18.90;99.90;;;;;;10486439;28;20068;-60
2024/02/15 22:16:51;;;;;;;5.75;2.10;;;18.80;99.90;;;;;;10486458;28;20052;-61
2024/02/15 22:21:53;;;;;;;6.15;2.28;;;18.60;99.90;;;;;;10490388;28;20044;-60
2024/02/15 22:26:58;;;;;;;4.68;1.95;;;18.60;99.90;;;;;;10471944;28;20056;-62
2024/02/15 22:32:02;;;;;;;3.28;1.75;;;18.30;99.90;;;;;;10482604;28;20162;-62
2024/02/15 22:37:04;;;;;;;4.75;2.20;;;18.30;99.90;;;;;;10465719;28;20186;-63
2024/02/15 22:42:06;;;;;;;3.17;1.65;;;18.20;99.90;;;;;;10465594;28;20800;-62
2024/02/15 22:47:09;;;;;;;3.30;2.17;;;18.10;99.90;;;;;;10456572;28;20045;-62
2024/02/15 22:52:14;;;;;;;6.57;2.15;;;18.40;99.90;;;;;;10476128;28;20148;-62
2024/02/15 22:57:17;;;;;;;3.63;2.17;;;18.50;99.90;;;;;;10474801;28;20044;-64
2024/02/15 23:02:21;;;;;;;6.95;2.70;;;18.50;99.90;;;;;;10476021;28;20114;-62
2024/02/15 23:07:24;;;;;;;4.32;2.22;;;18.50;99.90;;;;;;10468687;28;20059;-63
2024/02/15 23:12:26;;;;;;;9.25;2.28;;;18.50;99.90;;;;;;10476444;28;20069;-63
2024/02/15 23:17:30;;;;;;;4.28;2.63;;;18.40;99.90;;;;;;10473675;28;21051;-63
2024/02/15 23:22:33;;;;;;;6.68;2.30;;;18.40;99.90;;;;;;10474767;28;20161;-63
2024/02/15 23:27:35;;;;;;;3.88;2.50;;;18.60;99.90;;;;;;10479346;28;20628;-63
2024/02/15 23:32:39;;;;;;;2.70;2.10;;;18.40;99.90;;;;;;10477065;28;20139;-63
2024/02/15 23:43:00;;;;;;;7.72;2.50;;;18.30;99.90;;;;;;10469746;28;20147;-63
2024/02/15 23:48:05;;;;;;;4.88;2.67;;;18.30;99.90;;;;;;10477367;28;20044;-62
2024/02/15 23:53:07;;;;;;;6.97;2.53;;;18.20;99.90;;;;;;10463758;28;20084;-63
2024/02/15 23:58:09;;;;;;;5.53;2.70;;;18.30;99.90;;;;;;10473122;28;20044;-63
